Time;durP1;ratioP1;P1;durP2;ratioP2;P2;SDS_P1;SDS_P2;PMS_P1;PMS_P2;Temp;Humidity;BMP_temperature;BMP_pressure;BME280_temperature;BME280_humidity;BME280_pressure;Samples;Min_cycle;Max_cycle;Signal;HPM_P1;HPM_P2
2023/03/17 00:01:08;;;;;;;2.33;1.93;;;;;;;-0.44;59.96;98279.84;6293529;28;20598;-35
2023/03/17 00:04:11;;;;;;;2.20;2.00;;;;;;;-0.30;59.81;98274.03;6291637;28;20238;-35
2023/03/17 00:07:16;;;;;;;3.43;2.67;;;;;;;-0.32;60.50;98266.34;6291290;28;20604;-35
2023/03/17 00:10:21;;;;;;;2.63;2.10;;;;;;;-0.45;60.21;98250.25;6299700;28;20728;-35
2023/03/17 00:13:24;;;;;;;3.80;2.80;;;;;;;-0.50;59.22;98238.63;6288116;28;20321;-35
2023/03/17 00:16:40;;;;;;;5.87;2.10;;;;;;;-0.22;57.91;98268.00;6291840;28;20724;-35
2023/03/17 00:19:43;;;;;;;2.30;2.10;;;;;;;-0.15;58.39;98264.56;6290741;28;20258;-35
2023/03/17 00:22:45;;;;;;;3.23;2.27;;;;;;;-0.07;58.03;98256.75;6272311;28;20761;-35
2023/03/17 00:25:48;;;;;;;2.80;2.10;;;;;;;-0.12;58.91;98256.41;6293605;28;20403;-36
2023/03/17 00:28:50;;;;;;;5.50;2.20;;;;;;;-0.13;59.00;98246.09;6292908;28;20790;-35
2023/03/17 00:31:56;;;;;;;2.23;1.90;;;;;;;-0.10;58.26;98244.00;6291648;28;20251;-35
2023/03/17 00:34:58;;;;;;;4.10;1.90;;;;;;;-0.14;57.84;98199.97;6289660;28;20227;-36
2023/03/17 00:38:00;;;;;;;2.40;1.93;;;;;;;-0.17;57.43;98182.75;6291051;28;20408;-35
2023/03/17 00:41:04;;;;;;;3.00;2.10;;;;;;;0.15;57.83;98231.75;6291179;28;20230;-36
2023/03/17 00:44:06;;;;;;;2.63;1.77;;;;;;;0.16;56.64;98220.28;6288304;28;20226;-35
2023/03/17 00:47:10;;;;;;;4.33;2.27;;;;;;;0.12;56.64;98205.88;6291327;28;20230;-36
2023/03/17 00:50:16;;;;;;;5.23;2.30;;;;;;;0.40;55.95;98226.53;6291617;28;20234;-36
2023/03/17 00:53:20;;;;;;;2.17;1.90;;;;;;;0.44;55.61;98228.69;6291775;28;20348;-36
2023/03/17 00:56:22;;;;;;;2.93;1.70;;;;;;;0.52;55.70;98217.34;6272088;28;20300;-36
2023/03/17 00:59:51;;;;;;;3.27;2.63;;;;;;;0.48;55.82;98216.03;6291388;28;20221;-36
2023/03/17 01:02:55;;;;;;;2.73;1.50;;;;;;;0.54;55.25;98197.03;6290249;28;20222;-35
2023/03/17 01:05:58;;;;;;;3.13;1.77;;;;;;;0.66;55.31;98195.72;6289450;28;20228;-35
2023/03/17 01:09:00;;;;;;;2.90;2.20;;;;;;;0.66;54.68;98179.16;6287646;28;20238;-36
2023/03/17 01:12:02;;;;;;;2.87;2.03;;;;;;;0.68;54.19;98178.00;6269221;28;20327;-35
2023/03/17 01:15:05;;;;;;;2.90;1.80;;;;;;;0.62;54.99;98170.81;6288789;28;20308;-36
2023/03/17 01:18:12;;;;;;;2.90;1.93;;;;;;;0.52;55.29;98175.41;6292835;28;20209;-36
2023/03/17 01:21:14;;;;;;;3.27;1.93;;;;;;;0.55;55.49;98169.03;6284125;28;20579;-36
2023/03/17 01:24:16;;;;;;;6.00;2.33;;;;;;;0.51;55.59;98158.06;6288630;28;20293;-36
2023/03/17 01:27:20;;;;;;;2.67;1.80;;;;;;;0.58;54.57;98156.41;6288883;28;20245;-36
2023/03/17 01:30:36;;;;;;;2.90;2.23;;;;;;;0.56;55.02;98162.81;6289943;28;20328;-36
2023/03/17 01:33:38;;;;;;;6.43;2.70;;;;;;;0.54;55.22;98146.41;6288727;28;20600;-36
2023/03/17 01:36:40;;;;;;;2.80;2.30;;;;;;;0.50;55.33;98138.06;6275430;28;20300;-36
2023/03/17 01:39:42;;;;;;;2.93;2.23;;;;;;;0.64;53.85;98144.41;6289476;28;20306;-36
2023/03/17 01:43:01;;;;;;;3.37;1.90;;;;;;;0.74;54.18;98152.94;6290990;28;20274;-35
2023/03/17 01:46:06;;;;;;;3.57;2.33;;;;;;;0.80;52.81;98144.41;6290255;28;20233;-35
2023/03/17 01:49:23;;;;;;;2.93;2.00;;;;;;;0.84;53.03;98140.47;6286507;28;20694;-35
2023/03/17 01:52:27;;;;;;;3.37;2.10;;;;;;;0.82;53.59;98137.16;6283962;28;20706;-35
2023/03/17 01:55:30;;;;;;;3.50;2.23;;;;;;;0.74;54.83;98134.59;6290307;28;20258;-35
2023/03/17 01:58:33;;;;;;;5.00;2.37;;;;;;;0.71;54.59;98133.09;6273261;28;20241;-35
2023/03/17 02:01:44;;;;;;;4.90;2.10;;;;;;;0.67;54.16;98131.81;6272095;28;21709;-35
2023/03/17 02:04:46;;;;;;;2.10;1.73;;;;;;;0.63;54.96;98129.69;6287994;28;20264;-36
2023/03/17 02:07:48;;;;;;;3.23;2.23;;;;;;;0.63;54.61;98121.81;6271165;28;20381;-36
2023/03/17 02:10:51;;;;;;;3.37;2.47;;;;;;;0.55;54.94;98120.03;6273793;28;20230;-35
2023/03/17 02:13:53;;;;;;;3.60;2.30;;;;;;;0.48;56.04;98114.63;6269899;28;20268;-35
2023/03/17 02:16:56;;;;;;;3.67;2.20;;;;;;;0.40;56.47;98124.34;6270793;28;20320;-36
2023/03/17 02:20:17;;;;;;;5.37;2.00;;;;;;;0.35;56.07;98110.91;6269328;28;20841;-35
2023/03/17 02:23:22;;;;;;;4.20;2.50;;;;;;;0.29;55.00;98111.56;6289336;28;20218;-36
2023/03/17 02:26:25;;;;;;;4.17;2.13;;;;;;;0.23;55.67;98107.81;6288310;28;20313;-36
2023/03/17 02:29:27;;;;;;;3.60;2.03;;;;;;;0.34;55.31;98096.97;6290299;28;20307;-35
2023/03/17 02:32:29;;;;;;;4.43;2.30;;;;;;;0.38;56.44;98110.56;6288399;28;20819;-36
2023/03/17 02:35:31;;;;;;;3.50;1.97;;;;;;;0.39;55.50;98110.38;6288706;28;20283;-36
2023/03/17 02:38:34;;;;;;;7.70;2.37;;;;;;;0.27;56.67;98109.09;6297105;28;20332;-36
2023/03/17 02:41:37;;;;;;;3.67;2.20;;;;;;;0.23;56.50;98115.66;6293642;28;20881;-35
2023/03/17 02:44:39;;;;;;;4.83;2.33;;;;;;;0.24;56.39;98107.63;6291991;28;20223;-35
2023/03/17 02:47:41;;;;;;;2.50;2.10;;;;;;;0.19;56.71;98109.09;6277655;28;20325;-35
2023/03/17 02:50:43;;;;;;;3.97;2.00;;;;;;;-0.06;55.99;98061.97;6299866;28;20316;-35
2023/03/17 02:53:45;;;;;;;3.83;2.43;;;;;;;0.10;56.48;98099.63;6296757;28;20225;-36
2023/03/17 02:56:47;;;;;;;3.47;2.10;;;;;;;0.05;57.18;98107.16;6274956;28;20700;-35
2023/03/17 02:59:50;;;;;;;4.00;2.30;;;;;;;0.01;56.40;98105.88;6292463;28;20606;-36
2023/03/17 03:02:52;;;;;;;3.70;2.07;;;;;;;-0.04;56.39;98103.72;6297839;28;20309;-35
2023/03/17 03:05:54;;;;;;;4.07;2.43;;;;;;;-0.12;56.17;98091.44;6292716;28;20226;-35
2023/03/17 03:08:56;;;;;;;4.27;2.00;;;;;;;-0.03;56.35;98106.19;6272906;28;20317;-35
2023/03/17 03:11:58;;;;;;;3.03;2.13;;;;;;;-0.05;55.64;98087.22;6292947;28;20226;-35
2023/03/17 03:15:00;;;;;;;5.70;2.40;;;;;;;-0.17;57.10;98093.75;6292519;28;20628;-35
2023/03/17 03:18:02;;;;;;;4.80;2.57;;;;;;;-0.34;58.01;98092.94;6278178;28;20241;-35
2023/03/17 03:21:06;;;;;;;4.57;2.33;;;;;;;-0.57;57.42;98055.28;6296725;28;20213;-35
2023/03/17 03:24:08;;;;;;;2.60;2.00;;;;;;;-0.29;57.02;98082.78;6292454;28;20506;-35
2023/03/17 03:27:10;;;;;;;2.90;1.93;;;;;;;-0.27;57.81;98096.50;6294936;28;20287;-35
2023/03/17 03:30:13;;;;;;;2.50;2.20;;;;;;;-0.55;57.50;98050.69;6273199;28;20209;-35
2023/03/17 03:33:16;;;;;;;5.90;2.13;;;;;;;-0.36;58.45;98094.06;6293647;28;20310;-35
2023/03/17 03:36:19;;;;;;;2.83;2.00;;;;;;;-0.45;58.20;98074.91;6292822;28;20443;-35
2023/03/17 03:39:21;;;;;;;3.23;2.27;;;;;;;-0.30;57.39;98083.75;6292424;28;20241;-37
2023/03/17 03:42:23;;;;;;;3.57;2.23;;;;;;;-0.36;58.95;98075.72;6290691;28;20287;-36
2023/03/17 03:45:25;;;;;;;3.43;2.20;;;;;;;-0.44;59.13;98076.56;6272064;28;20230;-36
2023/03/17 03:48:27;;;;;;;4.50;2.37;;;;;;;-0.63;58.72;98042.84;6290763;28;20238;-36
2023/03/17 03:51:29;;;;;;;4.60;2.27;;;;;;;-0.45;57.56;98072.28;6296649;28;20226;-36
2023/03/17 03:54:32;;;;;;;4.03;1.80;;;;;;;-0.42;58.56;98069.34;6275970;28;20229;-36
2023/03/17 03:57:34;;;;;;;3.70;2.10;;;;;;;-0.33;58.13;98075.41;6293791;28;20303;-36
2023/03/17 04:00:36;;;;;;;2.80;2.37;;;;;;;-0.23;58.07;98077.88;6294668;28;20241;-36
2023/03/17 04:03:38;;;;;;;5.93;2.20;;;;;;;-0.33;58.87;98072.81;6292379;28;20225;-36
2023/03/17 04:06:40;;;;;;;3.07;2.23;;;;;;;-0.40;58.81;98077.03;6281611;28;20316;-36
2023/03/17 04:09:42;;;;;;;3.17;2.10;;;;;;;-0.68;58.59;98016.34;6294177;28;20748;-36
2023/03/17 04:12:45;;;;;;;3.57;2.17;;;;;;;-0.28;58.45;98066.09;6294041;28;20242;-36
2023/03/17 04:15:47;;;;;;;3.97;2.27;;;;;;;-0.27;57.77;98062.47;6291273;28;20245;-36
2023/03/17 04:18:50;;;;;;;4.57;2.60;;;;;;;-0.17;57.40;98064.94;6273551;28;20249;-36
2023/03/17 04:21:52;;;;;;;2.50;2.00;;;;;;;-0.20;58.09;98053.97;6288574;28;20242;-36
2023/03/17 04:24:55;;;;;;;4.17;2.33;;;;;;;-0.13;58.15;98050.53;6288632;28;20326;-36
2023/03/17 04:27:57;;;;;;;2.47;2.00;;;;;;;-0.07;57.32;98055.13;6293703;28;20249;-36
2023/03/17 04:30:59;;;;;;;2.30;2.00;;;;;;;-0.25;58.03;98046.59;6290718;28;20620;-36
2023/03/17 04:34:01;;;;;;;3.23;1.90;;;;;;;-0.41;57.08;98004.75;6287965;28;20234;-36
2023/03/17 04:37:03;;;;;;;6.20;2.30;;;;;;;-0.24;56.49;98006.38;6293541;28;20242;-36
2023/03/17 04:40:09;;;;;;;3.67;2.10;;;;;;;-0.03;56.04;98024.19;6270567;28;20236;-36
2023/03/17 04:43:11;;;;;;;3.53;2.33;;;;;;;0.15;56.93;98050.19;6291606;28;20238;-36
2023/03/17 04:46:13;;;;;;;4.40;2.40;;;;;;;0.16;55.69;98060.50;6292279;28;20313;-36
2023/03/17 04:49:15;;;;;;;3.07;2.07;;;;;;;0.26;55.40;98055.06;6274579;28;20234;-36
2023/03/17 04:52:17;;;;;;;3.07;2.03;;;;;;;0.29;55.01;98059.16;6273389;28;20765;-36
2023/03/17 04:55:20;;;;;;;3.13;2.43;;;;;;;0.37;54.00;98056.53;6275766;28;20274;-36
2023/03/17 04:58:23;;;;;;;3.83;1.93;;;;;;;0.49;53.83;98053.38;6293336;28;20793;-36
2023/03/17 05:01:31;;;;;;;4.33;2.50;;;;;;;0.52;53.53;98050.41;6293806;28;20236;-37
2023/03/17 05:04:33;;;;;;;4.57;2.27;;;;;;;0.61;53.62;98043.34;6293217;28;20706;-37
2023/03/17 05:07:35;;;;;;;3.47;2.23;;;;;;;0.63;53.83;98046.59;6290887;28;20234;-36
2023/03/17 05:10:37;;;;;;;3.80;2.10;;;;;;;0.62;54.28;98042.34;6265413;28;20306;-36
2023/03/17 05:13:40;;;;;;;3.13;2.13;;;;;;;0.57;53.59;98043.84;6291055;28;20276;-36
2023/03/17 05:16:42;;;;;;;2.90;2.00;;;;;;;0.59;52.97;98031.38;6291221;28;20257;-36
2023/03/17 05:19:44;;;;;;;4.13;2.20;;;;;;;0.73;53.04;98033.28;6291955;28;20238;-36
2023/03/17 05:22:46;;;;;;;2.77;2.10;;;;;;;0.60;53.84;98010.25;6290638;28;20230;-36
2023/03/17 05:25:48;;;;;;;5.27;2.17;;;;;;;0.70;52.28;98017.91;6287874;28;20237;-36
2023/03/17 05:28:50;;;;;;;5.73;2.30;;;;;;;0.95;52.28;98043.03;6287599;28;20287;-36
2023/03/17 05:31:52;;;;;;;4.13;2.30;;;;;;;1.04;53.03;98046.44;6288834;28;20744;-36
2023/03/17 05:34:54;;;;;;;4.73;2.33;;;;;;;1.13;52.33;98037.50;6289645;28;20229;-36
2023/03/17 05:37:56;;;;;;;2.77;2.20;;;;;;;1.10;52.75;98050.19;6286858;28;20249;-36
2023/03/17 05:40:58;;;;;;;3.40;2.10;;;;;;;1.19;52.73;98028.97;6290138;28;20225;-36
2023/03/17 05:44:01;;;;;;;3.63;2.17;;;;;;;1.36;52.13;98037.53;6288325;28;20607;-36
2023/03/17 05:47:03;;;;;;;3.07;1.80;;;;;;;1.36;53.19;98040.16;6266527;28;20249;-36
2023/03/17 05:50:05;;;;;;;6.13;3.20;;;;;;;1.55;48.66;98028.38;6279385;28;20232;-36
2023/03/17 05:53:08;;;;;;;2.70;2.13;;;;;;;1.78;49.52;98025.75;6293813;28;20299;-36
2023/03/17 05:56:11;;;;;;;4.43;2.07;;;;;;;2.01;48.75;98030.94;6271741;28;20227;-36
2023/03/17 05:59:15;;;;;;;5.07;2.30;;;;;;;2.10;47.71;98024.63;6289556;28;20283;-37
2023/03/17 06:02:17;;;;;;;3.47;2.10;;;;;;;2.30;48.67;98033.63;6289240;28;20263;-36
2023/03/17 06:05:19;;;;;;;4.03;2.40;;;;;;;2.39;48.19;98023.03;6292545;28;20698;-36
2023/03/17 06:08:22;;;;;;;5.63;2.40;;;;;;;1.92;47.71;97947.94;6269932;28;20238;-36
2023/03/17 06:11:24;;;;;;;4.20;2.00;;;;;;;2.57;47.46;98037.44;6274927;28;20228;-36
2023/03/17 06:14:26;;;;;;;5.40;2.80;;;;;;;2.66;47.74;98022.38;6294312;28;20304;-36
2023/03/17 06:17:28;;;;;;;5.83;3.10;;;;;;;2.75;45.89;98041.50;6294590;28;20252;-36
2023/03/17 06:20:32;;;;;;;5.03;2.40;;;;;;;2.86;45.77;98030.53;6296058;28;20728;-36
2023/03/17 06:23:34;;;;;;;3.73;2.30;;;;;;;3.05;45.25;98024.69;6299167;28;20228;-36
2023/03/17 06:26:36;;;;;;;4.70;2.57;;;;;;;3.27;44.65;98028.16;6281788;28;20314;-37
2023/03/17 06:29:38;;;;;;;4.07;2.13;;;;;;;3.27;44.13;98019.44;6296202;28;20229;-36
2023/03/17 06:32:40;;;;;;;4.07;2.03;;;;;;;3.46;44.18;98018.00;6295718;28;20365;-36
2023/03/17 06:35:42;;;;;;;5.23;2.03;;;;;;;3.54;45.38;98028.41;6293682;28;20230;-36
2023/03/17 06:38:45;;;;;;;4.33;2.47;;;;;;;3.50;42.85;98014.00;6292473;28;20238;-36
2023/03/17 06:41:47;;;;;;;3.77;2.40;;;;;;;3.59;44.68;98026.84;6294696;28;20233;-36
2023/03/17 06:44:52;;;;;;;4.43;2.43;;;;;;;3.60;44.09;98028.50;6295635;28;20228;-36
2023/03/17 06:47:54;;;;;;;4.83;2.97;;;;;;;3.34;44.66;98000.06;6292329;28;20310;-36
2023/03/17 06:50:56;;;;;;;4.00;2.73;;;;;;;3.38;45.31;98013.69;6294695;28;20770;-36
2023/03/17 06:53:58;;;;;;;4.53;2.13;;;;;;;3.47;43.95;98030.97;6293668;28;20320;-36
2023/03/17 06:57:00;;;;;;;2.80;2.23;;;;;;;3.54;43.94;98036.31;6295672;28;20226;-36
2023/03/17 07:00:07;;;;;;;4.73;2.67;;;;;;;3.79;42.43;98032.31;6289307;28;20242;-36
2023/03/17 07:03:10;;;;;;;3.70;2.47;;;;;;;3.72;43.64;98006.91;6297398;28;20221;-36
2023/03/17 07:06:12;;;;;;;4.40;2.57;;;;;;;3.96;41.08;98032.03;6293099;28;20224;-36
2023/03/17 07:09:14;;;;;;;5.03;2.83;;;;;;;4.01;40.66;98000.63;6281887;28;20237;-36
2023/03/17 07:12:16;;;;;;;4.33;2.30;;;;;;;4.27;39.71;98031.63;6291960;28;20292;-36
2023/03/17 07:15:19;;;;;;;7.20;2.63;;;;;;;4.41;40.75;98046.53;6293362;28;20316;-36
2023/03/17 07:18:22;;;;;;;5.10;2.67;;;;;;;4.63;38.24;98034.06;6293012;28;20775;-36
2023/03/17 07:21:24;;;;;;;3.87;2.60;;;;;;;4.77;39.59;98041.06;6291772;28;20250;-36
2023/03/17 07:24:26;;;;;;;3.87;2.50;;;;;;;4.82;38.67;98038.63;6292633;28;20256;-36
2023/03/17 07:27:29;;;;;;;3.97;2.70;;;;;;;5.07;39.76;98040.78;6290536;28;20285;-36
2023/03/17 07:30:32;;;;;;;10.40;2.73;;;;;;;5.25;39.21;98037.59;6273401;28;20325;-36
2023/03/17 07:33:34;;;;;;;4.70;2.63;;;;;;;5.42;37.98;98038.88;6293986;28;20601;-37
2023/03/17 07:36:36;;;;;;;3.23;2.40;;;;;;;5.63;36.93;98019.41;6275124;28;20229;-37
2023/03/17 07:39:38;;;;;;;5.60;3.03;;;;;;;5.91;36.11;98028.00;6295543;28;20794;-37
2023/03/17 07:42:41;;;;;;;3.43;2.40;;;;;;;6.15;35.61;98018.59;6290401;28;20244;-37
2023/03/17 07:45:43;;;;;;;4.47;2.50;;;;;;;6.69;35.33;98014.00;6292441;28;20278;-36
2023/03/17 07:48:45;;;;;;;4.37;2.80;;;;;;;7.57;34.26;98018.69;6288020;28;20231;-37
2023/03/17 07:51:48;;;;;;;4.43;2.60;;;;;;;8.53;31.12;98013.84;6295609;28;20248;-37
2023/03/17 07:54:50;;;;;;;7.07;2.40;;;;;;;9.67;30.94;98006.06;6277272;28;20262;-37
2023/03/17 07:57:53;;;;;;;5.07;2.30;;;;;;;11.45;27.75;98014.47;6291945;28;20233;-37
2023/03/17 08:00:56;;;;;;;3.97;2.40;;;;;;;13.88;24.14;98007.38;6291718;28;20597;-37
2023/03/17 08:03:59;;;;;;;3.17;2.40;;;;;;;15.60;20.44;98000.53;6275257;28;20317;-37
2023/03/17 08:07:02;;;;;;;4.73;2.43;;;;;;;17.35;19.41;98005.38;6293061;28;20236;-35
2023/03/17 08:10:07;;;;;;;5.43;2.73;;;;;;;18.62;18.54;98000.09;6277470;28;20367;-36
2023/03/17 08:13:09;;;;;;;5.55;3.00;;;;;;;19.77;16.64;98001.66;6291278;28;20537;-37
2023/03/17 08:16:12;;;;;;;2.77;2.57;;;;;;;19.78;17.23;98005.97;6290875;28;20242;-35
2023/03/17 08:19:15;;;;;;;3.93;2.90;;;;;;;19.79;16.97;97998.66;6289641;28;20233;-35
2023/03/17 08:22:17;;;;;;;5.10;2.50;;;;;;;19.56;16.65;98006.53;6293791;28;20233;-36
2023/03/17 08:25:19;;;;;;;4.37;2.53;;;;;;;19.21;16.74;98005.13;6294236;28;20240;-37
2023/03/17 08:28:21;;;;;;;2.87;2.17;;;;;;;19.63;16.74;98003.50;6291618;28;20222;-36
2023/03/17 08:31:23;;;;;;;4.07;2.53;;;;;;;18.62;16.65;98000.94;6291016;28;20238;-36
2023/03/17 08:34:26;;;;;;;4.38;2.70;;;;;;;19.14;15.96;98015.47;6274924;28;20480;-37
2023/03/17 08:37:28;;;;;;;3.30;2.30;;;;;;;19.13;16.88;97972.56;6287788;28;20240;-36
2023/03/17 08:40:30;;;;;;;3.53;2.47;;;;;;;19.62;16.51;97984.88;6294502;28;20260;-36
2023/03/17 08:43:34;;;;;;;3.27;2.50;;;;;;;19.91;15.98;97995.53;6291030;28;20245;-36
2023/03/17 08:46:36;;;;;;;3.03;2.47;;;;;;;19.01;16.05;97986.47;6276383;28;20230;-36
2023/03/17 08:49:39;;;;;;;2.83;2.53;;;;;;;17.93;16.61;97988.59;6293253;28;20217;-37
2023/03/17 08:52:41;;;;;;;3.03;2.23;;;;;;;16.27;18.45;97990.63;6289599;28;20311;-36
2023/03/17 08:55:43;;;;;;;6.20;2.30;;;;;;;14.75;19.77;97978.53;6289920;28;20229;-36
2023/03/17 08:58:45;;;;;;;6.10;2.43;;;;;;;14.28;20.91;97990.00;6289432;28;20318;-41
2023/03/17 09:01:47;;;;;;;6.97;2.60;;;;;;;13.57;21.09;97968.03;6274363;28;20805;-37
2023/03/17 09:04:49;;;;;;;3.57;2.23;;;;;;;13.10;21.98;97971.25;6297740;28;20601;-37
2023/03/17 09:07:52;;;;;;;2.27;1.90;;;;;;;12.81;22.19;98000.88;6286548;28;20229;-36
2023/03/17 09:10:54;;;;;;;4.83;2.40;;;;;;;12.46;22.34;97998.50;6287885;28;20693;-37
2023/03/17 09:13:56;;;;;;;2.30;2.10;;;;;;;12.45;22.68;97996.09;6290782;28;20320;-36
2023/03/17 09:16:58;;;;;;;3.77;2.23;;;;;;;12.45;23.01;98012.13;6289838;28;20345;-37
2023/03/17 09:20:00;;;;;;;3.67;2.20;;;;;;;11.92;23.84;98008.94;6289449;28;20802;-37
2023/03/17 09:23:07;;;;;;;5.07;2.13;;;;;;;11.83;23.99;98005.03;6289634;28;20233;-37
2023/03/17 09:26:09;;;;;;;4.13;2.20;;;;;;;11.79;23.51;98004.69;6289318;28;20286;-37
2023/03/17 09:29:11;;;;;;;2.83;1.80;;;;;;;11.45;23.29;97906.97;6289657;28;20320;-37
2023/03/17 09:32:15;;;;;;;2.80;2.47;;;;;;;12.07;23.97;98001.16;6286823;28;20225;-36
2023/03/17 09:35:17;;;;;;;3.70;2.05;;;;;;;12.31;22.71;97968.91;6291744;28;20450;-36
2023/03/17 09:38:20;;;;;;;3.40;2.07;;;;;;;12.19;22.75;97992.25;6259771;28;20227;-36
2023/03/17 09:41:41;;;;;;;4.90;2.10;;;;;;;12.39;22.82;97992.53;6291069;28;20301;-36
2023/03/17 09:45:02;;;;;;;1.93;1.73;;;;;;;12.37;22.93;97984.78;6291668;28;20308;-36
2023/03/17 09:48:26;;;;;;;2.63;1.70;;;;;;;12.64;23.28;97986.75;6269562;28;20258;-36
2023/03/17 09:51:31;;;;;;;4.27;2.00;;;;;;;12.50;23.01;97983.59;6290296;28;20645;-36
2023/03/17 09:54:36;;;;;;;3.17;1.90;;;;;;;12.46;23.21;97974.47;6292516;28;20337;-36
2023/03/17 09:57:39;;;;;;;3.43;1.90;;;;;;;12.64;22.56;97984.06;6278995;28;20228;-36
2023/03/17 10:00:42;;;;;;;2.87;2.30;;;;;;;12.53;21.92;97977.78;6292894;28;20244;-37
2023/03/17 10:03:46;;;;;;;3.00;1.93;;;;;;;12.47;22.24;97975.31;6277411;28;20237;-37
2023/03/17 10:06:50;;;;;;;4.13;1.90;;;;;;;12.51;21.68;97930.97;6290797;28;20307;-36
2023/03/17 10:10:11;;;;;;;4.03;1.90;;;;;;;12.55;22.35;97966.84;6257990;28;20233;-36
2023/03/17 10:13:31;;;;;;;3.40;2.40;;;;;;;12.54;22.51;97957.22;6276021;28;20274;-37
2023/03/17 10:16:41;;;;;;;2.63;1.90;;;;;;;12.77;21.79;97966.88;6273973;28;20341;-36
2023/03/17 10:19:58;;;;;;;3.47;2.23;;;;;;;12.96;21.54;97962.03;6287036;28;20319;-37
2023/03/17 10:23:06;;;;;;;3.33;2.20;;;;;;;13.34;20.89;97948.53;6287796;28;20325;-37
2023/03/17 10:26:30;;;;;;;2.93;1.83;;;;;;;13.49;22.26;97955.91;6288997;28;20241;-37
2023/03/17 10:29:32;;;;;;;3.67;2.13;;;;;;;13.70;20.23;97964.13;6293952;28;20225;-38
2023/03/17 10:32:37;;;;;;;3.63;2.10;;;;;;;13.81;20.89;97961.28;6272658;28;20229;-37
2023/03/17 10:35:40;;;;;;;6.33;2.23;;;;;;;14.03;20.00;97946.97;6286886;28;20234;-37
2023/03/17 10:39:04;;;;;;;4.47;2.20;;;;;;;14.22;20.02;97948.16;6289054;28;20241;-42
2023/03/17 10:42:12;;;;;;;6.00;2.97;;;;;;;14.25;19.93;97963.75;6286411;28;20359;-37
2023/03/17 10:45:24;;;;;;;6.57;2.90;;;;;;;14.14;20.71;97952.16;6289019;28;20225;-37
2023/03/17 10:48:28;;;;;;;2.70;2.00;;;;;;;14.56;20.60;97942.50;6272749;28;20577;-38
2023/03/17 10:51:36;;;;;;;5.33;2.53;;;;;;;14.75;19.09;97934.81;6289624;28;20231;-37
2023/03/17 10:54:39;;;;;;;4.43;2.70;;;;;;;14.55;19.62;97940.88;6271998;28;20397;-37
2023/03/17 10:57:52;;;;;;;2.40;1.90;;;;;;;14.48;20.23;97919.66;6285121;28;20324;-37
2023/03/17 11:01:04;;;;;;;5.20;2.53;;;;;;;14.62;19.94;97944.94;6293836;28;20421;-37
2023/03/17 11:04:27;;;;;;;3.73;2.13;;;;;;;14.30;19.09;97946.88;6294168;28;20238;-37
2023/03/17 11:07:39;;;;;;;3.93;2.63;;;;;;;14.11;20.61;97936.59;6290427;28;20232;-37
2023/03/17 11:10:41;;;;;;;4.00;2.50;;;;;;;14.06;19.39;97935.75;6293001;28;20234;-37
2023/03/17 11:13:44;;;;;;;3.47;2.40;;;;;;;14.25;20.05;97947.66;6292887;28;20230;-37
2023/03/17 11:16:54;;;;;;;2.70;2.30;;;;;;;14.12;19.72;97959.63;6294750;28;20234;-37
2023/03/17 11:20:20;;;;;;;2.80;2.30;;;;;;;13.77;20.22;97944.09;6291792;28;20231;-37
2023/03/17 11:23:41;;;;;;;3.17;2.13;;;;;;;13.62;20.48;97941.28;6292980;28;20719;-37
2023/03/17 11:26:55;;;;;;;3.97;2.73;;;;;;;13.78;20.03;97915.44;6291375;28;20267;-37
2023/03/17 11:30:10;;;;;;;3.70;2.43;;;;;;;13.68;20.15;97914.31;6291060;28;20241;-37
2023/03/17 11:33:35;;;;;;;3.60;2.10;;;;;;;13.89;20.84;97915.28;6292096;28;20700;-37
2023/03/17 11:36:56;;;;;;;5.30;2.40;;;;;;;13.49;19.43;97922.97;6293686;28;20302;-36
2023/03/17 11:40:18;;;;;;;4.20;2.53;;;;;;;13.34;20.27;97923.63;6292487;28;20222;-37
2023/03/17 11:43:29;;;;;;;6.53;2.40;;;;;;;13.24;20.36;97920.88;6271331;28;20237;-37
2023/03/17 11:46:56;;;;;;;3.77;2.47;;;;;;;13.39;20.54;97921.00;6288971;28;20243;-36
2023/03/17 11:50:33;;;;;;;3.10;2.20;;;;;;;12.74;20.58;97909.34;6295076;28;20321;-38
2023/03/17 11:53:54;;;;;;;5.70;2.47;;;;;;;12.59;20.71;97903.81;6289052;28;20235;-36
2023/03/17 11:57:09;;;;;;;3.37;2.40;;;;;;;12.70;21.53;97894.06;6293843;28;20317;-36
2023/03/17 12:00:26;;;;;;;3.10;2.33;;;;;;;12.99;20.36;97897.31;6292482;28;20372;-36
2023/03/17 12:03:38;;;;;;;3.07;2.20;;;;;;;13.22;19.71;97882.88;6293161;28;20271;-36
2023/03/17 12:06:54;;;;;;;2.50;2.10;;;;;;;13.47;19.68;97868.91;6261073;28;20226;-36
2023/03/17 12:10:18;;;;;;;4.33;2.20;;;;;;;13.03;19.65;97869.81;6284445;28;20448;-36
2023/03/17 12:13:23;;;;;;;2.90;2.03;;;;;;;13.30;20.34;97891.25;6295372;28;20266;-37
2023/03/17 12:16:45;;;;;;;3.77;2.20;;;;;;;13.28;19.66;97861.25;6290112;28;20763;-37
2023/03/17 12:20:05;;;;;;;3.73;2.80;;;;;;;13.37;20.16;97859.72;6274376;28;20616;-37
2023/03/17 12:23:17;;;;;;;4.23;2.33;;;;;;;13.65;20.42;97858.63;6289482;28;20249;-36
2023/03/17 12:26:59;;;;;;;3.40;2.50;;;;;;;13.68;21.09;97855.41;6290878;28;20375;-37
2023/03/17 12:30:37;;;;;;;2.73;2.23;;;;;;;13.61;20.45;97860.19;6201121;28;20863;-36
2023/03/17 12:34:04;;;;;;;3.07;2.27;;;;;;;13.67;20.79;97858.34;6179265;28;20704;-37
2023/03/17 12:37:06;;;;;;;2.70;2.33;;;;;;;13.68;20.14;97819.78;6195670;28;20332;-37
2023/03/17 12:40:14;;;;;;;3.23;2.63;;;;;;;13.35;20.21;97837.78;6192956;28;20221;-37
2023/03/17 12:43:28;;;;;;;2.73;2.43;;;;;;;13.14;20.29;97835.94;6197401;28;20746;-38
2023/03/17 12:46:42;;;;;;;4.60;2.60;;;;;;;13.15;20.08;97829.53;6197482;28;20338;-36
2023/03/17 12:50:05;;;;;;;3.87;2.00;;;;;;;12.65;20.72;97723.75;6193474;28;20232;-37
2023/03/17 12:53:31;;;;;;;2.90;2.40;;;;;;;13.45;20.43;97818.31;6201039;28;20236;-37
2023/03/17 12:56:35;;;;;;;2.87;1.83;;;;;;;13.50;20.55;97822.91;6199271;28;20930;-38
2023/03/17 12:59:41;;;;;;;2.77;2.20;;;;;;;13.43;20.58;97807.84;6212241;28;20716;-37
2023/03/17 13:02:48;;;;;;;3.33;2.60;;;;;;;13.51;21.02;97797.75;6290990;28;20243;-37
2023/03/17 13:05:57;;;;;;;2.83;2.23;;;;;;;13.46;20.54;97795.84;6294125;28;20229;-37
2023/03/17 13:09:34;;;;;;;3.37;2.50;;;;;;;13.43;20.69;97799.03;6288359;28;20706;-37
2023/03/17 13:12:40;;;;;;;3.70;2.37;;;;;;;13.54;20.14;97802.56;6289890;28;20244;-37
2023/03/17 13:15:42;;;;;;;6.40;2.90;;;;;;;13.54;20.33;97792.66;6291172;28;20248;-37
2023/03/17 13:18:46;;;;;;;3.47;2.40;;;;;;;13.54;20.67;97799.91;6274596;28;20709;-36
2023/03/17 13:22:04;;;;;;;4.40;2.50;;;;;;;13.72;20.83;97796.00;6291983;28;20238;-37
2023/03/17 13:25:34;;;;;;;3.67;2.80;;;;;;;13.64;20.54;97802.63;6271361;28;20577;-38
2023/03/17 13:28:36;;;;;;;3.27;2.30;;;;;;;13.43;21.04;97788.31;6278409;28;20226;-36
2023/03/17 13:31:38;;;;;;;2.47;2.13;;;;;;;13.43;20.85;97791.00;6286034;28;20225;-37
2023/03/17 13:34:47;;;;;;;3.40;2.80;;;;;;;13.38;21.30;97785.59;6290957;28;20320;-37
2023/03/17 13:38:08;;;;;;;3.92;3.00;;;;;;;13.60;21.03;97783.63;6274290;28;20866;-37
2023/03/17 13:41:16;;;;;;;3.43;2.87;;;;;;;13.20;21.18;97784.13;6292215;28;20236;-36
2023/03/17 13:45:00;;;;;;;4.87;3.00;;;;;;;13.01;21.66;97753.47;6271913;28;20259;-36
2023/03/17 13:48:32;;;;;;;4.37;2.80;;;;;;;13.03;21.96;97786.91;6141594;28;20737;-35
2023/03/17 13:51:34;;;;;;;3.60;3.30;;;;;;;13.09;22.66;97782.41;6148850;28;20729;-37
2023/03/17 13:54:47;;;;;;;6.20;3.30;;;;;;;13.23;21.90;97782.81;6135702;28;20615;-37
2023/03/17 13:58:22;;;;;;;7.43;3.43;;;;;;;13.26;21.66;97772.44;6145363;28;20797;-37
2023/03/17 14:01:27;;;;;;;4.57;2.70;;;;;;;13.42;22.49;97766.09;6128714;28;20268;-37
2023/03/17 14:04:39;;;;;;;3.97;2.97;;;;;;;13.46;22.05;97765.59;6136585;28;20358;-37
2023/03/17 14:07:48;;;;;;;4.20;2.83;;;;;;;13.33;21.49;97764.97;6138077;28;20259;-37
2023/03/17 14:10:56;;;;;;;5.33;3.63;;;;;;;13.22;21.30;97762.50;6134054;28;20241;-35
2023/03/17 14:14:15;;;;;;;3.40;2.90;;;;;;;13.02;21.74;97761.25;6145267;28;20241;-36
2023/03/17 14:17:45;;;;;;;5.27;3.23;;;;;;;12.97;22.04;97763.06;6138449;28;20648;-36
2023/03/17 14:20:55;;;;;;;3.63;3.10;;;;;;;12.87;22.09;97772.63;6131753;28;20236;-36
2023/03/17 14:24:00;;;;;;;4.63;3.07;;;;;;;12.73;22.10;97755.38;6193358;28;20230;-36
2023/03/17 14:27:06;;;;;;;4.43;2.90;;;;;;;12.69;22.24;97732.88;6290230;28;20356;-36
2023/03/17 14:30:18;;;;;;;3.93;3.20;;;;;;;12.65;22.30;97732.56;6295331;28;20211;-35
2023/03/17 14:33:26;;;;;;;5.17;3.10;;;;;;;12.66;22.63;97725.38;6291882;28;20226;-37
2023/03/17 14:36:33;;;;;;;5.30;3.13;;;;;;;12.69;22.25;97730.22;6279086;28;20246;-36
2023/03/17 14:39:44;;;;;;;4.93;3.37;;;;;;;12.64;22.88;97744.31;6296671;28;20598;-36
2023/03/17 14:42:46;;;;;;;6.03;2.83;;;;;;;12.57;22.61;97721.56;6297869;28;20763;-36